Time;durP1;ratioP1;P1;durP2;ratioP2;P2;SDS_P1;SDS_P2;PMS_P1;PMS_P2;Temp;Humidity;BMP_temperature;BMP_pressure;BME280_temperature;BME280_humidity;BME280_pressure;Samples;Min_cycle;Max_cycle;Signal;HPM_P1;HPM_P2
2022/12/21 00:01:37;;;;;;;0.47;0.47;;;;;;;;;;5050285;28;20033;-70
2022/12/21 00:04:03;;;;;;;1.75;1.65;;;;;;;;;;5041729;28;20029;-69
2022/12/21 00:06:31;;;;;;;1.48;1.38;;;;;;;;;;5030091;28;20030;-69
2022/12/21 00:08:59;;;;;;;0.70;0.70;;;;;;;;;;5029890;28;20025;-69
2022/12/21 00:11:25;;;;;;;7.07;6.40;;;;;;;;;;5029815;28;20033;-70
2022/12/21 00:13:51;;;;;;;2.30;2.15;;;;;;;;;;5029335;28;20033;-69
2022/12/21 00:16:18;;;;;;;4.07;1.38;;;;;;;;;;5029791;28;20120;-70
2022/12/21 00:18:44;;;;;;;1.17;1.17;;;;;;;;;;5029877;28;20054;-70
2022/12/21 00:21:13;;;;;;;3.78;3.50;;;;;;;;;;5029632;28;20109;-70
2022/12/21 00:23:39;;;;;;;1.95;1.85;;;;;;;;;;5029933;28;20027;-70
2022/12/21 00:26:06;;;;;;;0.50;0.50;;;;;;;;;;5028831;28;20021;-70
2022/12/21 00:28:32;;;;;;;0.30;0.30;;;;;;;;;;5029325;28;20030;-69
2022/12/21 00:31:04;;;;;;;0.20;0.20;;;;;;;;;;5032383;28;20025;-69
2022/12/21 00:33:30;;;;;;;0.75;0.75;;;;;;;;;;5049012;28;20658;-69
2022/12/21 00:35:55;;;;;;;1.35;1.25;;;;;;;;;;5049359;28;20112;-70
2022/12/21 00:38:21;;;;;;;0.82;0.77;;;;;;;;;;5063236;28;20085;-70
2022/12/21 00:40:54;;;;;;;5.72;4.35;;;;;;;;;;5051620;28;20024;-70
2022/12/21 00:43:20;;;;;;;0.35;0.35;;;;;;;;;;5069460;28;20063;-69
2022/12/21 00:45:47;;;;;;;23.38;7.00;;;;;;;;;;5069268;28;20033;-69
2022/12/21 00:48:13;;;;;;;0.20;0.20;;;;;;;;;;5051427;28;20028;-69
2022/12/21 00:50:38;;;;;;;2.28;2.08;;;;;;;;;;5068630;28;20150;-70
2022/12/21 00:53:03;;;;;;;1.85;1.75;;;;;;;;;;5069206;28;20097;-69
2022/12/21 00:55:29;;;;;;;1.88;1.77;;;;;;;;;;5068773;28;20024;-69
2022/12/21 00:57:54;;;;;;;1.92;1.83;;;;;;;;;;5051359;28;20051;-70
2022/12/21 01:00:20;;;;;;;0.10;0.10;;;;;;;;;;5047640;28;20043;-70
2022/12/21 01:02:45;;;;;;;0.85;0.85;;;;;;;;;;5065822;28;20036;-69
2022/12/21 01:05:11;;;;;;;0.32;0.32;;;;;;;;;;5031101;28;20033;-71
2022/12/21 01:07:36;;;;;;;0.47;0.47;;;;;;;;;;5030850;28;20119;-71
2022/12/21 01:10:02;;;;;;;1.95;1.85;;;;;;;;;;5030698;28;20040;-71
2022/12/21 01:12:27;;;;;;;1.80;1.70;;;;;;;;;;5049082;28;20020;-71
2022/12/21 01:14:53;;;;;;;1.20;1.20;;;;;;;;;;5034772;28;20020;-71
2022/12/21 01:17:18;;;;;;;1.00;1.00;;;;;;;;;;5051131;28;20107;-71
2022/12/21 01:19:44;;;;;;;0.30;0.30;;;;;;;;;;5051293;28;20040;-71
2022/12/21 01:22:10;;;;;;;0.30;0.30;;;;;;;;;;5068663;28;20468;-70
2022/12/21 01:24:35;;;;;;;2.85;2.65;;;;;;;;;;5034888;28;20036;-71
2022/12/21 01:27:00;;;;;;;0.20;0.20;;;;;;;;;;5050335;28;20468;-70
2022/12/21 01:29:26;;;;;;;2.40;2.30;;;;;;;;;;5069111;28;20032;-70
2022/12/21 01:31:51;;;;;;;0.55;0.55;;;;;;;;;;5068709;28;20028;-69
2022/12/21 01:34:17;;;;;;;4.70;3.28;;;;;;;;;;5068735;28;20043;-71
2022/12/21 01:36:44;;;;;;;0.82;0.57;;;;;;;;;;5051440;28;20357;-70
2022/12/21 01:39:13;;;;;;;0.50;0.50;;;;;;;;;;5052935;28;20047;-70
2022/12/21 01:41:38;;;;;;;2.13;2.03;;;;;;;;;;5051045;28;20108;-70
2022/12/21 01:44:24;;;;;;;0.60;0.60;;;;;;;;;;5051674;28;20120;-71
2022/12/21 01:46:49;;;;;;;0.20;0.20;;;;;;;;;;5072461;28;20107;-72
2022/12/21 01:49:29;;;;;;;0.98;0.90;;;;;;;;;;5054574;28;20568;-70
2022/12/21 01:52:04;;;;;;;1.65;1.55;;;;;;;;;;5054010;28;20438;-70
2022/12/21 01:54:31;;;;;;;1.50;1.45;;;;;;;;;;5072105;28;20039;-69
2022/12/21 01:56:59;;;;;;;;;;;;;;;;;;5054565;28;20479;-69
2022/12/21 01:59:32;;;;;;;0.50;0.50;;;;;;;;;;5052832;28;19916;-71
2022/12/21 02:01:59;;;;;;;0.10;0.10;;;;;;;;;;5071979;28;20733;-70
2022/12/21 02:04:25;;;;;;;0.50;0.50;;;;;;;;;;5053587;28;20037;-69
2022/12/21 02:06:55;;;;;;;1.00;0.70;;;;;;;;;;5072043;28;20510;-70
2022/12/21 02:09:20;;;;;;;0.30;0.30;;;;;;;;;;5053540;28;20159;-70
2022/12/21 02:11:48;;;;;;;0.10;0.10;;;;;;;;;;5070253;28;20039;-70
2022/12/21 02:14:14;;;;;;;0.52;0.52;;;;;;;;;;5060117;28;20070;-70
2022/12/21 02:16:39;;;;;;;0.10;0.10;;;;;;;;;;5051547;28;20132;-70
2022/12/21 02:19:34;;;;;;;0.10;0.10;;;;;;;;;;5033899;28;20536;-70
2022/12/21 02:22:04;;;;;;;8.63;6.55;;;;;;;;;;5051566;28;20037;-71
2022/12/21 02:24:32;;;;;;;0.20;0.20;;;;;;;;;;5051841;28;20029;-69
2022/12/21 02:27:12;;;;;;;0.20;0.20;;;;;;;;;;5051830;28;20032;-69
2022/12/21 02:29:56;;;;;;;2.17;2.08;;;;;;;;;;5033335;28;20286;-70
2022/12/21 02:32:21;;;;;;;0.40;0.40;;;;;;;;;;5051613;28;20472;-70
2022/12/21 02:35:05;;;;;;;1.02;1.02;;;;;;;;;;5051687;28;20036;-70
2022/12/21 02:37:37;;;;;;;0.32;0.32;;;;;;;;;;5033898;28;20045;-70
2022/12/21 02:40:16;;;;;;;1.38;1.13;;;;;;;;;;5040298;28;20044;-70
2022/12/21 02:45:47;;;;;;;0.35;0.35;;;;;;;;;;5071095;28;20426;-71
2022/12/21 02:48:15;;;;;;;0.10;0.10;;;;;;;;;;5052982;28;20032;-70
2022/12/21 02:50:45;;;;;;;0.40;0.40;;;;;;;;;;5053041;28;20554;-70
2022/12/21 02:53:15;;;;;;;0.28;0.28;;;;;;;;;;5052971;28;20025;-71
2022/12/21 02:55:44;;;;;;;9.50;2.22;;;;;;;;;;5053582;28;20438;-71
2022/12/21 02:58:20;;;;;;;0.10;0.10;;;;;;;;;;5070891;28;20028;-71
2022/12/21 03:00:52;;;;;;;0.32;0.32;;;;;;;;;;5053154;28;20045;-70
2022/12/21 03:03:53;;;;;;;0.43;0.43;;;;;;;;;;5053212;28;20039;-69
2022/12/21 03:06:22;;;;;;;0.10;0.10;;;;;;;;;;5036776;28;20052;-70
2022/12/21 03:08:59;;;;;;;0.75;0.50;;;;;;;;;;5071094;28;20585;-69
2022/12/21 03:11:27;;;;;;;0.30;0.30;;;;;;;;;;5052768;28;20127;-70
2022/12/21 03:13:55;;;;;;;0.98;0.93;;;;;;;;;;5052555;28;20025;-70
2022/12/21 03:16:26;;;;;;;3.65;3.45;;;;;;;;;;5036358;28;20044;-69
2022/12/21 03:19:02;;;;;;;0.30;0.30;;;;;;;;;;5052406;28;20040;-70
2022/12/21 03:21:49;;;;;;;0.20;0.20;;;;;;;;;;5051491;28;20107;-70
2022/12/21 03:24:33;;;;;;;0.77;0.75;;;;;;;;;;5069556;28;20547;-70
2022/12/21 03:27:01;;;;;;;0.75;0.75;;;;;;;;;;5070388;28;20533;-69
2022/12/21 03:29:30;;;;;;;0.10;0.10;;;;;;;;;;5070510;28;20031;-69
2022/12/21 03:31:59;;;;;;;0.32;0.32;;;;;;;;;;5070272;28;20440;-70
2022/12/21 03:34:30;;;;;;;0.47;0.43;;;;;;;;;;5051118;28;20032;-70
2022/12/21 03:37:05;;;;;;;1.00;0.65;;;;;;;;;;5052225;28;20091;-70
2022/12/21 03:39:31;;;;;;;1.45;1.20;;;;;;;;;;5054420;28;20479;-70
2022/12/21 03:41:59;;;;;;;0.00;0.00;;;;;;;;;;5050020;28;20094;-69
2022/12/21 03:44:32;;;;;;;0.77;0.77;;;;;;;;;;5050249;28;20029;-69
2022/12/21 03:47:01;;;;;;;0.38;0.38;;;;;;;;;;5065825;28;20032;-70
2022/12/21 03:49:27;;;;;;;;;;;;;;;;;;5035686;28;20029;-71
2022/12/21 03:51:52;;;;;;;0.20;0.20;;;;;;;;;;5070166;28;19969;-69
2022/12/21 03:54:39;;;;;;;0.10;0.10;;;;;;;;;;5060481;28;20359;-70
2022/12/21 03:57:06;;;;;;;0.20;0.20;;;;;;;;;;5049939;28;20427;-69
2022/12/21 03:59:32;;;;;;;0.10;0.10;;;;;;;;;;5048757;28;20069;-69
2022/12/21 04:02:23;;;;;;;0.10;0.10;;;;;;;;;;5049412;28;20461;-70
2022/12/21 04:05:07;;;;;;;0.10;0.10;;;;;;;;;;5026166;28;20506;-70
2022/12/21 04:07:34;;;;;;;0.10;0.10;;;;;;;;;;5050097;28;20025;-70
2022/12/21 04:10:03;;;;;;;0.10;0.10;;;;;;;;;;5049325;28;20498;-70
2022/12/21 04:12:38;;;;;;;0.20;0.20;;;;;;;;;;5031772;28;20033;-70
2022/12/21 04:15:09;;;;;;;0.10;0.10;;;;;;;;;;5015646;28;20060;-72
2022/12/21 04:17:35;;;;;;;0.10;0.10;;;;;;;;;;5049191;28;20028;-71
2022/12/21 04:20:03;;;;;;;0.20;0.20;;;;;;;;;;5049518;28;20092;-70
2022/12/21 04:28:07;;;;;;;0.10;0.10;;;;;;;;;;5049639;28;20041;-71
2022/12/21 04:30:33;;;;;;;0.05;0.05;;;;;;;;;;5049499;28;20052;-69
2022/12/21 04:32:59;;;;;;;0.73;0.73;;;;;;;;;;5048006;28;20044;-70
2022/12/21 04:35:24;;;;;;;0.20;0.20;;;;;;;;;;5049052;28;20037;-70
2022/12/21 04:37:50;;;;;;;0.10;0.10;;;;;;;;;;5040982;28;20052;-70
2022/12/21 04:40:15;;;;;;;1.17;1.17;;;;;;;;;;5030459;28;20047;-70
2022/12/21 04:42:40;;;;;;;0.10;0.10;;;;;;;;;;5047203;28;20135;-70
2022/12/21 04:45:06;;;;;;;0.65;0.65;;;;;;;;;;5049269;28;20057;-70
2022/12/21 04:47:32;;;;;;;0.15;0.15;;;;;;;;;;5049246;28;20033;-69
2022/12/21 04:49:57;;;;;;;0.10;0.10;;;;;;;;;;5030905;28;20029;-71
2022/12/21 04:52:23;;;;;;;0.10;0.10;;;;;;;;;;5037266;28;20025;-71
2022/12/21 04:54:48;;;;;;;0.43;0.43;;;;;;;;;;5008309;28;20124;-71
2022/12/21 04:57:14;;;;;;;0.10;0.10;;;;;;;;;;5025414;28;20033;-70
2022/12/21 04:59:39;;;;;;;0.10;0.10;;;;;;;;;;5029332;28;20484;-70
2022/12/21 05:02:05;;;;;;;2.28;2.17;;;;;;;;;;5029128;28;20083;-70
2022/12/21 05:04:30;;;;;;;0.17;0.17;;;;;;;;;;5011406;28;20499;-69
2022/12/21 05:06:56;;;;;;;0.10;0.10;;;;;;;;;;5019621;28;20037;-68
2022/12/21 05:09:22;;;;;;;0.10;0.10;;;;;;;;;;5048912;28;20039;-69
2022/12/21 05:11:48;;;;;;;1.40;1.30;;;;;;;;;;5051593;28;20032;-69
2022/12/21 05:14:13;;;;;;;0.17;0.17;;;;;;;;;;5047411;28;20805;-68
2022/12/21 05:16:39;;;;;;;0.40;0.40;;;;;;;;;;5043803;28;20052;-70
2022/12/21 05:19:04;;;;;;;0.10;0.10;;;;;;;;;;5046833;28;20056;-71
2022/12/21 05:21:30;;;;;;;0.10;0.10;;;;;;;;;;5048423;28;20029;-71
2022/12/21 05:23:55;;;;;;;0.10;0.10;;;;;;;;;;5052558;28;20029;-71
2022/12/21 05:26:21;;;;;;;0.10;0.10;;;;;;;;;;5052811;28;20170;-71
2022/12/21 05:28:47;;;;;;;0.63;0.63;;;;;;;;;;5034784;28;20036;-71
2022/12/21 05:31:13;;;;;;;0.10;0.10;;;;;;;;;;5052530;28;20029;-71
2022/12/21 05:33:39;;;;;;;0.17;0.17;;;;;;;;;;5034273;28;20044;-70
2022/12/21 05:36:06;;;;;;;0.10;0.10;;;;;;;;;;5034345;28;20025;-71
2022/12/21 05:38:32;;;;;;;0.80;0.80;;;;;;;;;;5032702;28;20057;-69
2022/12/21 05:40:57;;;;;;;0.10;0.10;;;;;;;;;;5033827;28;20040;-71
2022/12/21 05:43:23;;;;;;;0.38;0.38;;;;;;;;;;5052553;28;20404;-72
2022/12/21 05:45:49;;;;;;;0.10;0.10;;;;;;;;;;5034234;28;20522;-70
2022/12/21 05:48:14;;;;;;;0.20;0.20;;;;;;;;;;5052096;28;20116;-69
2022/12/21 05:50:40;;;;;;;0.20;0.20;;;;;;;;;;5052522;28;20515;-70
2022/12/21 05:53:06;;;;;;;0.10;0.10;;;;;;;;;;5034444;28;20451;-69
2022/12/21 05:55:32;;;;;;;0.63;0.63;;;;;;;;;;5051271;28;20016;-69
2022/12/21 05:57:57;;;;;;;0.32;0.32;;;;;;;;;;5051058;28;20039;-73
2022/12/21 06:00:22;;;;;;;0.73;0.73;;;;;;;;;;5048928;28;20037;-71
2022/12/21 06:02:48;;;;;;;0.10;0.10;;;;;;;;;;5036259;28;20032;-71
2022/12/21 06:05:13;;;;;;;6.55;4.95;;;;;;;;;;5017791;28;20028;-70
2022/12/21 06:07:39;;;;;;;1.55;1.02;;;;;;;;;;5042111;28;20144;-70
2022/12/21 06:10:05;;;;;;;0.05;0.05;;;;;;;;;;5049604;28;20025;-71
2022/12/21 06:12:31;;;;;;;0.10;0.10;;;;;;;;;;5051294;28;20057;-70
2022/12/21 06:14:56;;;;;;;0.10;0.10;;;;;;;;;;5051748;28;20056;-70
2022/12/21 06:17:22;;;;;;;0.10;0.10;;;;;;;;;;5033347;28;20440;-70
2022/12/21 06:19:47;;;;;;;0.55;0.55;;;;;;;;;;5034117;28;20055;-70
2022/12/21 06:22:13;;;;;;;0.10;0.10;;;;;;;;;;5032244;28;20036;-70
2022/12/21 06:24:38;;;;;;;0.10;0.10;;;;;;;;;;5034128;28;20020;-71
2022/12/21 06:27:04;;;;;;;0.10;0.10;;;;;;;;;;5052122;28;20376;-70
2022/12/21 06:29:29;;;;;;;0.17;0.17;;;;;;;;;;5050320;28;20546;-71
2022/12/21 06:31:55;;;;;;;0.10;0.10;;;;;;;;;;5036874;28;20029;-70
2022/12/21 06:34:20;;;;;;;0.10;0.10;;;;;;;;;;5030994;28;20384;-71
2022/12/21 06:36:47;;;;;;;0.10;0.10;;;;;;;;;;5037725;28;20032;-70
2022/12/21 06:39:12;;;;;;;0.10;0.10;;;;;;;;;;5046966;28;20049;-70
2022/12/21 06:41:37;;;;;;;0.10;0.10;;;;;;;;;;5033016;28;20037;-71
2022/12/21 06:44:03;;;;;;;1.20;1.20;;;;;;;;;;5050624;28;20033;-71
2022/12/21 06:46:28;;;;;;;0.00;0.00;;;;;;;;;;5032309;28;20033;-71
2022/12/21 06:48:54;;;;;;;0.20;0.20;;;;;;;;;;5049861;28;20031;-70
2022/12/21 06:51:21;;;;;;;0.10;0.10;;;;;;;;;;5050757;28;20400;-70
2022/12/21 06:53:47;;;;;;;0.35;0.35;;;;;;;;;;5049290;28;20117;-71
2022/12/21 06:56:12;;;;;;;0.10;0.10;;;;;;;;;;5047193;28;20377;-70
2022/12/21 06:58:38;;;;;;;0.17;0.17;;;;;;;;;;5046577;28;20041;-70
2022/12/21 07:01:07;;;;;;;0.55;0.55;;;;;;;;;;5049329;28;20029;-70
2022/12/21 07:03:33;;;;;;;;;;;;;;;;;;5016182;28;20029;-70
2022/12/21 07:05:58;;;;;;;0.17;0.17;;;;;;;;;;5050679;28;19963;-70
2022/12/21 07:08:24;;;;;;;0.10;0.10;;;;;;;;;;5050742;28;20028;-70
2022/12/21 07:10:49;;;;;;;0.20;0.20;;;;;;;;;;5033073;28;20056;-70
2022/12/21 07:13:15;;;;;;;0.10;0.10;;;;;;;;;;5050545;28;20108;-70
2022/12/21 07:15:40;;;;;;;0.20;0.20;;;;;;;;;;5050442;28;20112;-70
2022/12/21 07:18:06;;;;;;;0.10;0.10;;;;;;;;;;5030829;28;20041;-70
2022/12/21 07:20:32;;;;;;;0.20;0.20;;;;;;;;;;5048710;28;20025;-70
2022/12/21 07:22:57;;;;;;;4.18;3.85;;;;;;;;;;5048643;28;20032;-70
2022/12/21 07:25:23;;;;;;;0.63;0.63;;;;;;;;;;5048370;28;20512;-70
2022/12/21 07:27:48;;;;;;;0.10;0.10;;;;;;;;;;5048269;28;20094;-70
2022/12/21 07:30:14;;;;;;;0.20;0.20;;;;;;;;;;5048093;28;20021;-69
2022/12/21 07:32:40;;;;;;;0.28;0.28;;;;;;;;;;5049277;28;20511;-69
2022/12/21 07:35:06;;;;;;;0.30;0.30;;;;;;;;;;5048901;28;20033;-71
2022/12/21 07:37:32;;;;;;;0.30;0.30;;;;;;;;;;5050046;28;20098;-69
2022/12/21 07:39:57;;;;;;;0.10;0.10;;;;;;;;;;5032063;28;20468;-69
2022/12/21 07:42:24;;;;;;;0.10;0.10;;;;;;;;;;5050338;28;20025;-69
2022/12/21 07:45:13;;;;;;;0.10;0.10;;;;;;;;;;5038692;28;20468;-70
2022/12/21 07:47:41;;;;;;;0.47;0.47;;;;;;;;;;5032220;28;20046;-69
2022/12/21 07:50:07;;;;;;;0.10;0.10;;;;;;;;;;5032054;28;20041;-70
2022/12/21 07:52:33;;;;;;;0.20;0.20;;;;;;;;;;5050013;28;20028;-69
2022/12/21 07:54:59;;;;;;;0.10;0.10;;;;;;;;;;5049882;28;20063;-69
2022/12/21 07:57:24;;;;;;;0.10;0.10;;;;;;;;;;5049940;28;20025;-69
2022/12/21 07:59:50;;;;;;;0.10;0.10;;;;;;;;;;5049457;28;20381;-70
2022/12/21 08:02:15;;;;;;;0.10;0.10;;;;;;;;;;5032186;28;20503;-69
2022/12/21 08:04:41;;;;;;;0.15;0.15;;;;;;;;;;5029977;28;20508;-69
2022/12/21 08:07:06;;;;;;;0.10;0.10;;;;;;;;;;5030102;28;20091;-70
2022/12/21 08:09:32;;;;;;;0.30;0.30;;;;;;;;;;5029827;28;20037;-70
2022/12/21 08:11:58;;;;;;;0.10;0.10;;;;;;;;;;5030293;28;20113;-69
2022/12/21 08:14:23;;;;;;;0.20;0.20;;;;;;;;;;5029348;28;20144;-69
2022/12/21 08:16:49;;;;;;;0.10;0.10;;;;;;;;;;5029274;28;20013;-69
2022/12/21 08:19:14;;;;;;;0.20;0.20;;;;;;;;;;5029715;28;20053;-69
2022/12/21 08:21:40;;;;;;;0.20;0.20;;;;;;;;;;5042078;28;20045;-70
2022/12/21 08:24:05;;;;;;;0.40;0.40;;;;;;;;;;5049293;28;20361;-70
2022/12/21 08:26:31;;;;;;;0.20;0.20;;;;;;;;;;5049276;28;20021;-70
2022/12/21 08:28:57;;;;;;;2.78;1.20;;;;;;;;;;5049684;28;20460;-69
2022/12/21 08:31:22;;;;;;;0.20;0.20;;;;;;;;;;5044035;28;20099;-69
2022/12/21 08:33:48;;;;;;;0.40;0.40;;;;;;;;;;5040788;28;20025;-70
2022/12/21 08:36:18;;;;;;;0.20;0.20;;;;;;;;;;5049351;28;20082;-70
2022/12/21 08:38:44;;;;;;;0.40;0.40;;;;;;;;;;5062431;28;20048;-71
2022/12/21 08:41:10;;;;;;;0.10;0.10;;;;;;;;;;5069069;28;20532;-70
2022/12/21 08:43:36;;;;;;;0.40;0.40;;;;;;;;;;5069415;28;20077;-70
2022/12/21 08:46:02;;;;;;;0.30;0.30;;;;;;;;;;5070006;28;20036;-70
2022/12/21 08:48:28;;;;;;;1.15;1.15;;;;;;;;;;5073368;28;20028;-70
2022/12/21 08:50:53;;;;;;;0.10;0.10;;;;;;;;;;5073812;28;20033;-71
2022/12/21 08:53:19;;;;;;;0.17;0.17;;;;;;;;;;5073244;28;20025;-70
2022/12/21 08:55:45;;;;;;;0.10;0.10;;;;;;;;;;5073115;28;20472;-71
2022/12/21 08:58:10;;;;;;;0.10;0.10;;;;;;;;;;5072926;28;20037;-70
2022/12/21 09:00:37;;;;;;;0.32;0.32;;;;;;;;;;5072713;28;20036;-70
2022/12/21 09:03:06;;;;;;;0.10;0.10;;;;;;;;;;5073141;28;20177;-69
2022/12/21 09:05:32;;;;;;;0.10;0.10;;;;;;;;;;5055270;28;20042;-71
2022/12/21 09:07:57;;;;;;;0.10;0.10;;;;;;;;;;5072921;28;20088;-70
2022/12/21 09:10:23;;;;;;;0.10;0.10;;;;;;;;;;5066844;28;20041;-70
2022/12/21 09:12:48;;;;;;;0.10;0.10;;;;;;;;;;5063182;28;20010;-70
2022/12/21 09:15:13;;;;;;;0.63;0.63;;;;;;;;;;5044435;28;20131;-70
2022/12/21 09:17:39;;;;;;;0.10;0.10;;;;;;;;;;5061602;28;20039;-68
2022/12/21 09:20:05;;;;;;;0.20;0.20;;;;;;;;;;5045037;28;20070;-70
2022/12/21 09:22:30;;;;;;;0.10;0.10;;;;;;;;;;5061873;28;20029;-70
2022/12/21 09:24:56;;;;;;;0.10;0.10;;;;;;;;;;5063868;28;20520;-71
2022/12/21 09:27:21;;;;;;;1.33;1.33;;;;;;;;;;5051037;28;20396;-69
2022/12/21 09:29:47;;;;;;;0.10;0.10;;;;;;;;;;5061076;28;20056;-71
2022/12/21 09:32:12;;;;;;;0.10;0.10;;;;;;;;;;5060267;28;20102;-70
2022/12/21 09:34:38;;;;;;;0.20;0.20;;;;;;;;;;5063254;28;20017;-72
2022/12/21 09:37:03;;;;;;;0.10;0.10;;;;;;;;;;5061238;28;20598;-69
2022/12/21 09:39:29;;;;;;;0.10;0.10;;;;;;;;;;5043673;28;20056;-70
2022/12/21 09:42:12;;;;;;;0.10;0.10;;;;;;;;;;5065397;28;20028;-71
2022/12/21 09:44:49;;;;;;;0.10;0.10;;;;;;;;;;5069488;28;20055;-72
2022/12/21 09:47:18;;;;;;;0.35;0.35;;;;;;;;;;5069408;28;20036;-71
2022/12/21 09:49:48;;;;;;;0.32;0.32;;;;;;;;;;5069291;28;20047;-70
2022/12/21 09:52:33;;;;;;;0.17;0.17;;;;;;;;;;5071999;28;20064;-71
2022/12/21 09:55:02;;;;;;;0.32;0.32;;;;;;;;;;5071868;28;20480;-71
2022/12/21 09:57:29;;;;;;;0.10;0.10;;;;;;;;;;5069567;28;20071;-71
2022/12/21 09:59:55;;;;;;;0.10;0.10;;;;;;;;;;5070025;28;20575;-71
2022/12/21 10:02:29;;;;;;;0.30;0.30;;;;;;;;;;5071464;28;20103;-71
2022/12/21 10:05:14;;;;;;;0.10;0.10;;;;;;;;;;5070807;28;20052;-71
2022/12/21 10:08:03;;;;;;;1.95;1.85;;;;;;;;;;5071946;28;20048;-71
2022/12/21 10:10:35;;;;;;;0.30;0.30;;;;;;;;;;5070355;28;20078;-72
2022/12/21 10:13:06;;;;;;;5.30;2.08;;;;;;;;;;5071076;28;20495;-72
2022/12/21 10:15:37;;;;;;;0.57;0.57;;;;;;;;;;5071534;28;20491;-75
2022/12/21 10:18:03;;;;;;;0.30;0.30;;;;;;;;;;5064445;28;20036;-72
2022/12/21 10:20:47;;;;;;;0.20;0.20;;;;;;;;;;5074432;28;20016;-72
2022/12/21 10:23:24;;;;;;;0.30;0.30;;;;;;;;;;5064724;28;20120;-72
2022/12/21 10:25:52;;;;;;;0.20;0.15;;;;;;;;;;5071292;28;20490;-70
2022/12/21 10:28:17;;;;;;;0.10;0.10;;;;;;;;;;5050599;28;20036;-71
2022/12/21 10:30:45;;;;;;;0.30;0.30;;;;;;;;;;5069818;28;20059;-71
2022/12/21 10:33:12;;;;;;;0.10;0.10;;;;;;;;;;5066075;28;20044;-72
2022/12/21 10:35:38;;;;;;;0.22;0.22;;;;;;;;;;5052243;28;20025;-75
2022/12/21 10:42:03;;;;;;;30.42;11.35;;;;;;;;;;5057564;28;20459;-71
2022/12/21 10:44:29;;;;;;;0.10;0.10;;;;;;;;;;5046961;28;20513;-72
2022/12/21 10:46:54;;;;;;;1.63;1.20;;;;;;;;;;5045342;28;20040;-73
2022/12/21 10:49:20;;;;;;;0.10;0.10;;;;;;;;;;5046269;28;20025;-73
2022/12/21 10:51:45;;;;;;;0.52;0.52;;;;;;;;;;5044927;28;20403;-72
2022/12/21 10:54:10;;;;;;;0.10;0.10;;;;;;;;;;5031433;28;20033;-73
2022/12/21 10:56:40;;;;;;;1.88;1.75;;;;;;;;;;5025074;28;20029;-73
2022/12/21 10:59:05;;;;;;;;;;;;;;;;;;5036620;28;20083;-75
2022/12/21 11:01:33;;;;;;;0.20;0.20;;;;;;;;;;5024657;28;19917;-72
2022/12/21 11:04:10;;;;;;;0.10;0.10;;;;;;;;;;5042992;28;20545;-72
2022/12/21 11:06:36;;;;;;;0.10;0.10;;;;;;;;;;5044541;28;20022;-72
2022/12/21 11:09:01;;;;;;;0.28;0.28;;;;;;;;;;5044712;28;20028;-74
2022/12/21 11:11:31;;;;;;;0.20;0.20;;;;;;;;;;5042651;28;20079;-73
2022/12/21 11:14:17;;;;;;;0.35;0.35;;;;;;;;;;5044247;28;20044;-72
2022/12/21 11:16:44;;;;;;;0.10;0.10;;;;;;;;;;5043558;28;20037;-73
2022/12/21 11:19:14;;;;;;;0.10;0.10;;;;;;;;;;5043707;28;20081;-73
2022/12/21 11:21:53;;;;;;;0.13;0.13;;;;;;;;;;5046209;28;20152;-73
2022/12/21 11:24:27;;;;;;;0.20;0.20;;;;;;;;;;5046103;28;20033;-73
2022/12/21 11:26:52;;;;;;;0.40;0.30;;;;;;;;;;5045354;28;20025;-73
2022/12/21 11:29:37;;;;;;;0.10;0.10;;;;;;;;;;5045664;28;20024;-74
2022/12/21 11:32:05;;;;;;;0.38;0.38;;;;;;;;;;5042174;28;20033;-72
2022/12/21 11:34:43;;;;;;;0.30;0.30;;;;;;;;;;5045279;28;20029;-73
2022/12/21 11:37:26;;;;;;;0.10;0.10;;;;;;;;;;5040726;28;20029;-74
2022/12/21 11:39:55;;;;;;;0.10;0.10;;;;;;;;;;5035236;28;20128;-70
2022/12/21 11:42:22;;;;;;;0.25;0.25;;;;;;;;;;5030910;28;20038;-76
2022/12/21 11:44:51;;;;;;;0.10;0.10;;;;;;;;;;5034579;28;20037;-73
2022/12/21 11:47:17;;;;;;;;;;;;;;;;;;5025846;28;20051;-74
2022/12/21 11:49:48;;;;;;;0.10;0.10;;;;;;;;;;5025793;28;20356;-72
2022/12/21 11:52:34;;;;;;;0.10;0.10;;;;;;;;;;5018597;28;20030;-73
2022/12/21 11:55:02;;;;;;;0.10;0.10;;;;;;;;;;5007783;28;20052;-71
2022/12/21 11:57:34;;;;;;;0.10;0.10;;;;;;;;;;5012257;28;20032;-73
2022/12/21 12:00:18;;;;;;;0.10;0.10;;;;;;;;;;5012364;28;20041;-72
2022/12/21 12:02:53;;;;;;;0.10;0.10;;;;;;;;;;5011109;28;20045;-73
2022/12/21 12:05:18;;;;;;;0.10;0.10;;;;;;;;;;5011827;28;20508;-71
2022/12/21 12:07:44;;;;;;;0.45;0.45;;;;;;;;;;5012039;28;20033;-71
2022/12/21 12:10:39;;;;;;;0.10;0.10;;;;;;;;;;5012285;28;20037;-72
2022/12/21 12:13:10;;;;;;;0.20;0.20;;;;;;;;;;5007783;28;20034;-71
2022/12/21 12:15:55;;;;;;;0.10;0.10;;;;;;;;;;5010569;28;20040;-73
2022/12/21 12:18:36;;;;;;;0.20;0.20;;;;;;;;;;5011746;28;20045;-72
2022/12/21 12:21:02;;;;;;;0.10;0.10;;;;;;;;;;5016743;28;20079;-72
2022/12/21 12:23:46;;;;;;;0.10;0.10;;;;;;;;;;5021844;28;20107;-71
2022/12/21 12:26:30;;;;;;;0.10;0.10;;;;;;;;;;5031928;28;20448;-73
2022/12/21 12:29:04;;;;;;;0.10;0.10;;;;;;;;;;5030744;28;20029;-72
2022/12/21 12:31:30;;;;;;;0.10;0.10;;;;;;;;;;5031474;28;20080;-73
2022/12/21 12:34:22;;;;;;;0.20;0.20;;;;;;;;;;5031603;28;20500;-72
2022/12/21 12:36:50;;;;;;;0.10;0.10;;;;;;;;;;5015162;28;20452;-72
2022/12/21 12:39:48;;;;;;;0.28;0.28;;;;;;;;;;5031640;28;20025;-72
2022/12/21 12:42:14;;;;;;;2.30;2.08;;;;;;;;;;5019630;28;20052;-72
2022/12/21 12:44:51;;;;;;;0.17;0.17;;;;;;;;;;5030131;28;20041;-73
2022/12/21 12:47:36;;;;;;;0.10;0.10;;;;;;;;;;5030081;28;20028;-74
2022/12/21 12:50:04;;;;;;;0.10;0.10;;;;;;;;;;5031348;28;20033;-72
2022/12/21 12:52:32;;;;;;;0.32;0.32;;;;;;;;;;5031566;28;20100;-72
2022/12/21 12:55:03;;;;;;;0.10;0.10;;;;;;;;;;5031177;28;20101;-71
2022/12/21 12:57:36;;;;;;;0.10;0.10;;;;;;;;;;5030946;28;20032;-72
2022/12/21 13:00:03;;;;;;;0.10;0.10;;;;;;;;;;5026990;28;20034;-72
2022/12/21 13:02:28;;;;;;;0.52;0.52;;;;;;;;;;5027933;28;20108;-73
2022/12/21 13:04:57;;;;;;;0.10;0.10;;;;;;;;;;5019612;28;20141;-72
2022/12/21 13:07:41;;;;;;;0.10;0.10;;;;;;;;;;5018996;28;20099;-73
2022/12/21 13:10:12;;;;;;;0.20;0.20;;;;;;;;;;5021563;28;20032;-73
2022/12/21 13:12:40;;;;;;;18.90;17.73;;;;;;;;;;5020853;28;20022;-73
2022/12/21 13:15:19;;;;;;;0.10;0.10;;;;;;;;;;5024841;28;20065;-72
2022/12/21 13:17:48;;;;;;;0.40;0.40;;;;;;;;;;5010255;28;20040;-71
2022/12/21 13:20:16;;;;;;;0.47;0.47;;;;;;;;;;5010710;28;20388;-72
2022/12/21 13:22:43;;;;;;;0.10;0.10;;;;;;;;;;5010777;28;20083;-71
2022/12/21 13:25:17;;;;;;;0.40;0.40;;;;;;;;;;5017215;28;20021;-74
2022/12/21 13:27:44;;;;;;;1.73;1.65;;;;;;;;;;5029440;28;20550;-73
2022/12/21 13:30:19;;;;;;;0.10;0.10;;;;;;;;;;5023425;28;20112;-73
2022/12/21 13:32:47;;;;;;;0.63;0.63;;;;;;;;;;5012412;28;20559;-71
2022/12/21 13:35:34;;;;;;;0.38;0.38;;;;;;;;;;5018337;28;20037;-73
2022/12/21 13:38:00;;;;;;;0.10;0.10;;;;;;;;;;5023856;28;20045;-70
2022/12/21 13:40:39;;;;;;;0.38;0.38;;;;;;;;;;5030312;28;20451;-71
2022/12/21 13:43:05;;;;;;;;;;;;;;;;;;5029584;28;20037;-71
2022/12/21 13:45:39;;;;;;;0.20;0.20;;;;;;;;;;5028128;28;19909;-71
2022/12/21 13:48:08;;;;;;;1.38;1.38;;;;;;;;;;5030112;28;20884;-71
2022/12/21 13:50:33;;;;;;;0.50;0.50;;;;;;;;;;5029301;28;20388;-71
2022/12/21 13:53:19;;;;;;;11.88;10.00;;;;;;;;;;5030108;28;20021;-73
2022/12/21 13:55:51;;;;;;;0.20;0.20;;;;;;;;;;5029893;28;20044;-74
2022/12/21 13:58:16;;;;;;;0.10;0.10;;;;;;;;;;5029035;28;20025;-72
2022/12/21 14:00:48;;;;;;;0.10;0.10;;;;;;;;;;5027950;28;20087;-71
2022/12/21 14:03:27;;;;;;;0.10;0.10;;;;;;;;;;5028140;28;20419;-71
2022/12/21 14:06:11;;;;;;;0.10;0.10;;;;;;;;;;5027994;28;20029;-71
2022/12/21 14:08:46;;;;;;;0.10;0.10;;;;;;;;;;5027793;28;20057;-73
2022/12/21 14:11:26;;;;;;;0.30;0.30;;;;;;;;;;5028029;28;20029;-72
2022/12/21 14:14:00;;;;;;;0.30;0.30;;;;;;;;;;5029510;28;20044;-71
2022/12/21 14:16:31;;;;;;;0.10;0.10;;;;;;;;;;5029786;28;20045;-71
2022/12/21 14:18:58;;;;;;;1.15;1.15;;;;;;;;;;5028396;28;20116;-71
2022/12/21 14:21:25;;;;;;;0.10;0.10;;;;;;;;;;5029599;28;20220;-72
2022/12/21 14:23:57;;;;;;;0.10;0.10;;;;;;;;;;5030001;28;20037;-74
2022/12/21 14:26:36;;;;;;;0.68;0.68;;;;;;;;;;5029608;28;20026;-71
2022/12/21 14:29:11;;;;;;;0.10;0.10;;;;;;;;;;5028648;28;20357;-71
2022/12/21 14:31:46;;;;;;;0.10;0.10;;;;;;;;;;5029607;28;20388;-70
2022/12/21 14:34:13;;;;;;;0.10;0.10;;;;;;;;;;5030607;28;20038;-71
2022/12/21 14:36:59;;;;;;;0.63;0.63;;;;;;;;;;5028381;28;20033;-71
2022/12/21 14:39:33;;;;;;;0.10;0.10;;;;;;;;;;5029394;28;20032;-71
2022/12/21 14:42:16;;;;;;;0.20;0.20;;;;;;;;;;5029429;28;20049;-72
2022/12/21 14:45:00;;;;;;;0.10;0.10;;;;;;;;;;5029827;28;20036;-71
2022/12/21 14:47:27;;;;;;;2.50;2.28;;;;;;;;;;5029319;28;20033;-71
2022/12/21 14:49:53;;;;;;;0.10;0.10;;;;;;;;;;5022207;28;20076;-71
2022/12/21 14:52:18;;;;;;;0.10;0.10;;;;;;;;;;5023440;28;20392;-71
2022/12/21 14:55:02;;;;;;;0.98;0.95;;;;;;;;;;5028889;28;20025;-70
2022/12/21 14:57:34;;;;;;;0.17;0.17;;;;;;;;;;5029496;28;20376;-71
2022/12/21 15:00:00;;;;;;;0.10;0.10;;;;;;;;;;5029462;28;20049;-72
2022/12/21 15:02:33;;;;;;;0.10;0.10;;;;;;;;;;5029396;28;20037;-71
2022/12/21 15:05:00;;;;;;;5.50;1.58;;;;;;;;;;5010023;28;20925;-73
2022/12/21 15:07:43;;;;;;;0.30;0.30;;;;;;;;;;5009774;28;20014;-71
2022/12/21 15:10:21;;;;;;;1.75;1.65;;;;;;;;;;5009511;28;20030;-70
2022/12/21 15:12:47;;;;;;;0.43;0.43;;;;;;;;;;5012244;28;20033;-71